sensor_id;sensor_type;location;lat;lon;timestamp;pressure;altitude;pressure_sealevel;temperature;humidity
77450;BME280;66536;53.150;18.172;2023-04-01T00:01:20;99301.64;;;10.41;81.63
77450;BME280;66536;53.150;18.172;2023-04-01T00:03:47;99305.48;;;10.36;81.80
77450;BME280;66536;53.150;18.172;2023-04-01T00:06:17;99301.39;;;10.34;81.92
77450;BME280;66536;53.150;18.172;2023-04-01T00:08:43;99299.15;;;10.33;81.84
77450;BME280;66536;53.150;18.172;2023-04-01T00:11:10;99295.58;;;10.33;81.79
77450;BME280;66536;53.150;18.172;2023-04-01T00:13:37;99292.77;;;10.31;81.85
77450;BME280;66536;53.150;18.172;2023-04-01T00:16:04;99296.38;;;10.30;81.82
77450;BME280;66536;53.150;18.172;2023-04-01T00:18:31;99294.15;;;10.30;81.87
77450;BME280;66536;53.150;18.172;2023-04-01T00:20:57;99292.95;;;10.29;81.84
77450;BME280;66536;53.150;18.172;2023-04-01T00:23:23;99294.06;;;10.28;81.91
77450;BME280;66536;53.150;18.172;2023-04-01T00:25:51;99290.89;;;10.27;81.93
77450;BME280;66536;53.150;18.172;2023-04-01T00:28:18;99292.14;;;10.28;81.82
77450;BME280;66536;53.150;18.172;2023-04-01T00:30:48;99289.42;;;10.29;81.81
77450;BME280;66536;53.150;18.172;2023-04-01T00:33:17;99288.79;;;10.32;81.82
77450;BME280;66536;53.150;18.172;2023-04-01T00:35:43;99287.89;;;10.31;81.72
77450;BME280;66536;53.150;18.172;2023-04-01T00:38:10;99291.13;;;10.30;81.81
77450;BME280;66536;53.150;18.172;2023-04-01T00:40:40;99289.23;;;10.27;81.81
77450;BME280;66536;53.150;18.172;2023-04-01T00:43:13;99288.06;;;10.24;81.84
77450;BME280;66536;53.150;18.172;2023-04-01T00:45:42;99287.09;;;10.22;81.81
77450;BME280;66536;53.150;18.172;2023-04-01T00:48:13;99286.56;;;10.17;82.05
77450;BME280;66536;53.150;18.172;2023-04-01T00:50:43;99285.39;;;10.11;82.37
77450;BME280;66536;53.150;18.172;2023-04-01T00:53:10;99285.88;;;10.04;82.32
77450;BME280;66536;53.150;18.172;2023-04-01T00:55:42;99282.92;;;10.00;82.40
77450;BME280;66536;53.150;18.172;2023-04-01T00:58:16;99281.75;;;9.97;82.52
77450;BME280;66536;53.150;18.172;2023-04-01T01:00:48;99281.23;;;9.94;82.58
77450;BME280;66536;53.150;18.172;2023-04-01T01:03:46;99281.48;;;9.91;82.67
77450;BME280;66536;53.150;18.172;2023-04-01T01:06:37;99279.55;;;9.89;82.68
77450;BME280;66536;53.150;18.172;2023-04-01T01:12:14;99276.95;;;9.75;83.47
77450;BME280;66536;53.150;18.172;2023-04-01T01:15:06;99278.86;;;9.65;83.75
77450;BME280;66536;53.150;18.172;2023-04-01T01:23:57;99277.95;;;9.53;83.87
77450;BME280;66536;53.150;18.172;2023-04-01T01:29:59;99280.14;;;9.49;84.35
77450;BME280;66536;53.150;18.172;2023-04-01T01:32:49;99283.50;;;9.43;84.26
77450;BME280;66536;53.150;18.172;2023-04-01T01:35:26;99283.25;;;9.37;84.49
77450;BME280;66536;53.150;18.172;2023-04-01T01:37:59;99283.17;;;9.34;84.54
77450;BME280;66536;53.150;18.172;2023-04-01T01:40:50;99281.02;;;9.30;84.95
77450;BME280;66536;53.150;18.172;2023-04-01T01:43:24;99281.39;;;9.25;84.70
77450;BME280;66536;53.150;18.172;2023-04-01T01:45:54;99281.26;;;9.24;84.58
77450;BME280;66536;53.150;18.172;2023-04-01T01:48:24;99279.52;;;9.23;85.03
77450;BME280;66536;53.150;18.172;2023-04-01T01:50:52;99281.33;;;9.16;85.07
77450;BME280;66536;53.150;18.172;2023-04-01T01:53:19;99276.71;;;9.12;85.33
77450;BME280;66536;53.150;18.172;2023-04-01T01:55:48;99280.10;;;9.08;85.24
77450;BME280;66536;53.150;18.172;2023-04-01T01:58:27;99275.73;;;9.06;85.24
77450;BME280;66536;53.150;18.172;2023-04-01T02:00:59;99276.69;;;9.05;85.11
77450;BME280;66536;53.150;18.172;2023-04-01T02:03:33;99281.36;;;9.01;85.84
77450;BME280;66536;53.150;18.172;2023-04-01T02:06:02;99280.17;;;8.95;85.50
77450;BME280;66536;53.150;18.172;2023-04-01T02:08:36;99278.86;;;8.95;85.72
77450;BME280;66536;53.150;18.172;2023-04-01T02:11:07;99283.17;;;8.94;85.64
77450;BME280;66536;53.150;18.172;2023-04-01T02:13:53;99279.13;;;8.92;85.86
77450;BME280;66536;53.150;18.172;2023-04-01T02:16:28;99280.52;;;8.89;85.93
77450;BME280;66536;53.150;18.172;2023-04-01T02:19:18;99280.34;;;8.85;85.72
77450;BME280;66536;53.150;18.172;2023-04-01T02:21:52;99281.14;;;8.84;85.99
77450;BME280;66536;53.150;18.172;2023-04-01T02:24:25;99280.27;;;8.82;86.09
77450;BME280;66536;53.150;18.172;2023-04-01T02:26:54;99279.77;;;8.82;85.95
77450;BME280;66536;53.150;18.172;2023-04-01T02:29:28;99282.84;;;8.84;85.95
77450;BME280;66536;53.150;18.172;2023-04-01T02:31:56;99278.02;;;8.81;86.22
77450;BME280;66536;53.150;18.172;2023-04-01T02:34:26;99282.94;;;8.76;86.15
77450;BME280;66536;53.150;18.172;2023-04-01T02:36:55;99277.65;;;8.75;85.91
77450;BME280;66536;53.150;18.172;2023-04-01T02:39:23;99282.77;;;8.73;86.63
77450;BME280;66536;53.150;18.172;2023-04-01T02:42:11;99285.16;;;8.68;86.39
77450;BME280;66536;53.150;18.172;2023-04-01T02:44:37;99288.80;;;8.66;86.44
77450;BME280;66536;53.150;18.172;2023-04-01T02:47:04;99290.63;;;8.66;86.30
77450;BME280;66536;53.150;18.172;2023-04-01T02:49:32;99289.99;;;8.66;86.37
77450;BME280;66536;53.150;18.172;2023-04-01T02:55:34;99295.67;;;8.56;87.11
77450;BME280;66536;53.150;18.172;2023-04-01T02:58:03;99300.02;;;8.52;87.31
77450;BME280;66536;53.150;18.172;2023-04-01T03:00:30;99301.37;;;8.50;87.08
77450;BME280;66536;53.150;18.172;2023-04-01T03:03:05;99300.34;;;8.50;87.28
77450;BME280;66536;53.150;18.172;2023-04-01T03:05:48;99301.17;;;8.48;87.62
77450;BME280;66536;53.150;18.172;2023-04-01T03:08:14;99304.35;;;8.45;87.59
77450;BME280;66536;53.150;18.172;2023-04-01T03:10:41;99305.88;;;8.44;87.73
77450;BME280;66536;53.150;18.172;2023-04-01T03:13:07;99307.79;;;8.44;87.46
77450;BME280;66536;53.150;18.172;2023-04-01T03:15:33;99314.96;;;8.42;87.27
77450;BME280;66536;53.150;18.172;2023-04-01T03:18:00;99317.32;;;8.41;87.15
77450;BME280;66536;53.150;18.172;2023-04-01T03:20:29;99318.53;;;8.42;87.07
77450;BME280;66536;53.150;18.172;2023-04-01T03:23:08;99322.14;;;8.37;87.46
77450;BME280;66536;53.150;18.172;2023-04-01T03:25:43;99316.58;;;8.31;87.84
77450;BME280;66536;53.150;18.172;2023-04-01T03:28:14;99320.40;;;8.26;87.95
77450;BME280;66536;53.150;18.172;2023-04-01T03:30:43;99320.02;;;8.23;88.14
77450;BME280;66536;53.150;18.172;2023-04-01T03:33:16;99322.03;;;8.22;87.67
77450;BME280;66536;53.150;18.172;2023-04-01T03:35:42;99326.95;;;8.22;87.66
77450;BME280;66536;53.150;18.172;2023-04-01T03:38:10;99328.61;;;8.24;87.72
77450;BME280;66536;53.150;18.172;2023-04-01T03:40:42;99327.05;;;8.23;87.89
77450;BME280;66536;53.150;18.172;2023-04-01T03:43:16;99329.84;;;8.19;87.84
77450;BME280;66536;53.150;18.172;2023-04-01T03:45:47;99334.84;;;8.16;87.47
77450;BME280;66536;53.150;18.172;2023-04-01T03:48:15;99331.56;;;8.13;87.60
77450;BME280;66536;53.150;18.172;2023-04-01T03:50:43;99334.09;;;8.08;87.66
77450;BME280;66536;53.150;18.172;2023-04-01T03:53:10;99334.98;;;8.05;87.55
77450;BME280;66536;53.150;18.172;2023-04-01T03:55:37;99333.55;;;8.03;87.34
77450;BME280;66536;53.150;18.172;2023-04-01T03:58:06;99335.90;;;8.02;87.52
77450;BME280;66536;53.150;18.172;2023-04-01T04:00:42;99338.54;;;7.98;87.70
77450;BME280;66536;53.150;18.172;2023-04-01T04:03:10;99344.71;;;7.93;87.66
77450;BME280;66536;53.150;18.172;2023-04-01T04:05:37;99345.83;;;7.91;87.52
77450;BME280;66536;53.150;18.172;2023-04-01T04:08:04;99350.86;;;7.88;87.61
77450;BME280;66536;53.150;18.172;2023-04-01T04:10:31;99357.64;;;7.85;87.79
77450;BME280;66536;53.150;18.172;2023-04-01T04:12:58;99360.96;;;7.80;87.75
77450;BME280;66536;53.150;18.172;2023-04-01T04:15:24;99360.10;;;7.76;88.05
77450;BME280;66536;53.150;18.172;2023-04-01T04:17:56;99363.73;;;7.69;88.08
77450;BME280;66536;53.150;18.172;2023-04-01T04:20:25;99361.01;;;7.60;88.07
77450;BME280;66536;53.150;18.172;2023-04-01T04:22:51;99371.48;;;7.52;88.15
77450;BME280;66536;53.150;18.172;2023-04-01T04:25:18;99372.86;;;7.48;88.04
77450;BME280;66536;53.150;18.172;2023-04-01T04:27:47;99378.59;;;7.43;88.34
77450;BME280;66536;53.150;18.172;2023-04-01T04:30:18;99373.39;;;7.33;88.40
77450;BME280;66536;53.150;18.172;2023-04-01T04:32:49;99385.06;;;7.27;88.52
77450;BME280;66536;53.150;18.172;2023-04-01T04:35:18;99385.78;;;7.24;88.64
77450;BME280;66536;53.150;18.172;2023-04-01T04:37:48;99385.63;;;7.22;88.48
77450;BME280;66536;53.150;18.172;2023-04-01T04:40:15;99393.02;;;7.25;88.36
77450;BME280;66536;53.150;18.172;2023-04-01T04:42:45;99394.39;;;7.28;88.22
77450;BME280;66536;53.150;18.172;2023-04-01T04:45:17;99396.74;;;7.27;88.25
77450;BME280;66536;53.150;18.172;2023-04-01T04:48:11;99399.80;;;7.24;88.23
77450;BME280;66536;53.150;18.172;2023-04-01T04:50:45;99399.34;;;7.19;87.91
77450;BME280;66536;53.150;18.172;2023-04-01T04:53:12;99405.90;;;7.16;87.85
77450;BME280;66536;53.150;18.172;2023-04-01T04:55:43;99407.62;;;7.14;87.91
77450;BME280;66536;53.150;18.172;2023-04-01T04:58:18;99410.55;;;7.14;88.03
77450;BME280;66536;53.150;18.172;2023-04-01T05:00:45;99413.48;;;7.14;87.97
77450;BME280;66536;53.150;18.172;2023-04-01T05:03:19;99414.26;;;7.11;87.66
77450;BME280;66536;53.150;18.172;2023-04-01T05:05:51;99414.77;;;7.07;87.79
77450;BME280;66536;53.150;18.172;2023-04-01T05:08:19;99421.49;;;7.05;87.77
77450;BME280;66536;53.150;18.172;2023-04-01T05:10:46;99423.45;;;7.03;88.17
77450;BME280;66536;53.150;18.172;2023-04-01T05:13:12;99429.96;;;7.01;87.77
77450;BME280;66536;53.150;18.172;2023-04-01T05:15:41;99429.75;;;6.99;87.81
77450;BME280;66536;53.150;18.172;2023-04-01T05:18:07;99433.45;;;6.97;87.70
77450;BME280;66536;53.150;18.172;2023-04-01T05:20:35;99438.23;;;6.93;87.68
77450;BME280;66536;53.150;18.172;2023-04-01T05:23:01;99440.80;;;6.90;87.32
77450;BME280;66536;53.150;18.172;2023-04-01T05:25:32;99437.55;;;6.86;87.52
77450;BME280;66536;53.150;18.172;2023-04-01T05:27:58;99447.82;;;6.80;87.40
77450;BME280;66536;53.150;18.172;2023-04-01T05:30:27;99451.71;;;6.77;87.40
77450;BME280;66536;53.150;18.172;2023-04-01T05:33:03;99449.41;;;6.72;87.28
77450;BME280;66536;53.150;18.172;2023-04-01T05:35:41;99444.77;;;6.68;87.19
77450;BME280;66536;53.150;18.172;2023-04-01T05:38:09;99447.29;;;6.63;87.33
77450;BME280;66536;53.150;18.172;2023-04-01T05:40:36;99458.83;;;6.59;87.31
77450;BME280;66536;53.150;18.172;2023-04-01T05:43:03;99456.58;;;6.58;87.29
77450;BME280;66536;53.150;18.172;2023-04-01T05:45:29;99454.12;;;6.59;87.31
77450;BME280;66536;53.150;18.172;2023-04-01T05:48:17;99452.55;;;6.62;87.21
77450;BME280;66536;53.150;18.172;2023-04-01T05:50:45;99457.39;;;6.62;87.00
77450;BME280;66536;53.150;18.172;2023-04-01T05:53:11;99456.41;;;6.59;87.00
77450;BME280;66536;53.150;18.172;2023-04-01T05:55:39;99462.54;;;6.59;86.96
77450;BME280;66536;53.150;18.172;2023-04-01T05:58:05;99460.39;;;6.61;86.67
77450;BME280;66536;53.150;18.172;2023-04-01T06:00:32;99464.73;;;6.63;86.89
77450;BME280;66536;53.150;18.172;2023-04-01T06:03:01;99467.48;;;6.64;86.86
77450;BME280;66536;53.150;18.172;2023-04-01T06:05:30;99466.29;;;6.67;86.64
77450;BME280;66536;53.150;18.172;2023-04-01T06:08:10;99465.33;;;6.73;86.81
77450;BME280;66536;53.150;18.172;2023-04-01T06:10:53;99466.38;;;6.75;86.53
77450;BME280;66536;53.150;18.172;2023-04-01T06:13:50;99472.98;;;6.79;86.51
77450;BME280;66536;53.150;18.172;2023-04-01T06:16:31;99475.34;;;6.84;86.42
77450;BME280;66536;53.150;18.172;2023-04-01T06:19:23;99480.21;;;6.89;86.40
77450;BME280;66536;53.150;18.172;2023-04-01T06:25:20;99480.20;;;6.86;86.05
77450;BME280;66536;53.150;18.172;2023-04-01T06:31:18;99488.20;;;6.94;85.78
77450;BME280;66536;53.150;18.172;2023-04-01T06:36:58;99485.49;;;6.96;85.38
77450;BME280;66536;53.150;18.172;2023-04-01T06:39:50;99492.70;;;6.95;85.23
77450;BME280;66536;53.150;18.172;2023-04-01T06:42:46;99490.98;;;6.96;85.24
77450;BME280;66536;53.150;18.172;2023-04-01T06:45:53;99493.23;;;6.98;85.02
77450;BME280;66536;53.150;18.172;2023-04-01T06:48:48;99498.58;;;7.02;84.92
77450;BME280;66536;53.150;18.172;2023-04-01T06:54:56;99506.25;;;7.18;84.80
77450;BME280;66536;53.150;18.172;2023-04-01T06:57:56;99512.00;;;7.19;84.57
77450;BME280;66536;53.150;18.172;2023-04-01T07:01:06;99511.08;;;7.21;84.74
77450;BME280;66536;53.150;18.172;2023-04-01T07:04:19;99518.09;;;7.23;84.43
77450;BME280;66536;53.150;18.172;2023-04-01T07:07:53;99524.36;;;7.26;84.50
77450;BME280;66536;53.150;18.172;2023-04-01T07:14:51;99531.95;;;7.24;83.88
77450;BME280;66536;53.150;18.172;2023-04-01T07:21:47;99548.69;;;7.21;83.84
77450;BME280;66536;53.150;18.172;2023-04-01T07:24:50;99548.45;;;7.23;83.46
77450;BME280;66536;53.150;18.172;2023-04-01T07:27:42;99542.73;;;7.21;83.35
77450;BME280;66536;53.150;18.172;2023-04-01T07:34:05;99542.71;;;7.20;83.21
77450;BME280;66536;53.150;18.172;2023-04-01T07:37:06;99555.04;;;7.18;83.76
77450;BME280;66536;53.150;18.172;2023-04-01T07:40:20;99556.85;;;7.18;83.77
77450;BME280;66536;53.150;18.172;2023-04-01T07:43:11;99563.64;;;7.20;83.60
77450;BME280;66536;53.150;18.172;2023-04-01T07:46:55;99569.01;;;7.22;83.29
77450;BME280;66536;53.150;18.172;2023-04-01T07:54:16;99587.84;;;7.08;83.62
77450;BME280;66536;53.150;18.172;2023-04-01T07:57:15;99582.44;;;7.07;83.53
77450;BME280;66536;53.150;18.172;2023-04-01T07:59:59;99586.36;;;7.04;83.79
77450;BME280;66536;53.150;18.172;2023-04-01T08:02:54;99592.08;;;7.04;83.96
77450;BME280;66536;53.150;18.172;2023-04-01T08:05:49;99594.81;;;7.08;83.50
77450;BME280;66536;53.150;18.172;2023-04-01T08:08:29;99599.68;;;7.12;83.45
77450;BME280;66536;53.150;18.172;2023-04-01T08:11:34;99601.25;;;7.15;83.04
77450;BME280;66536;53.150;18.172;2023-04-01T08:14:27;99599.09;;;7.13;82.87
77450;BME280;66536;53.150;18.172;2023-04-01T08:17:28;99605.95;;;7.10;82.88
77450;BME280;66536;53.150;18.172;2023-04-01T08:23:03;99617.57;;;7.20;82.79
77450;BME280;66536;53.150;18.172;2023-04-01T08:25:39;99618.64;;;7.29;82.89
77450;BME280;66536;53.150;18.172;2023-04-01T08:28:16;99621.90;;;7.38;82.65
77450;BME280;66536;53.150;18.172;2023-04-01T08:30:53;99627.63;;;7.52;81.72
77450;BME280;66536;53.150;18.172;2023-04-01T08:33:26;99630.04;;;7.65;81.05
77450;BME280;66536;53.150;18.172;2023-04-01T08:36:05;99621.27;;;7.72;80.26
77450;BME280;66536;53.150;18.172;2023-04-01T08:38:42;99635.12;;;7.73;79.98
77450;BME280;66536;53.150;18.172;2023-04-01T08:41:28;99624.75;;;7.83;79.85
77450;BME280;66536;53.150;18.172;2023-04-01T08:44:45;99626.45;;;7.90;79.14
77450;BME280;66536;53.150;18.172;2023-04-01T08:50:26;99635.35;;;8.15;78.89
77450;BME280;66536;53.150;18.172;2023-04-01T08:53:21;99637.15;;;8.36;78.70
77450;BME280;66536;53.150;18.172;2023-04-01T08:56:20;99643.72;;;8.50;78.26
77450;BME280;66536;53.150;18.172;2023-04-01T08:59:05;99647.80;;;8.60;78.56
77450;BME280;66536;53.150;18.172;2023-04-01T09:01:55;99652.42;;;8.67;78.06
77450;BME280;66536;53.150;18.172;2023-04-01T09:14:05;99665.13;;;9.02;76.60
77450;BME280;66536;53.150;18.172;2023-04-01T09:16:59;99667.00;;;9.09;75.44
77450;BME280;66536;53.150;18.172;2023-04-01T09:19:46;99672.37;;;9.00;75.23
77450;BME280;66536;53.150;18.172;2023-04-01T09:22:28;99673.02;;;8.85;75.47
77450;BME280;66536;53.150;18.172;2023-04-01T09:25:21;99678.19;;;8.76;76.87
77450;BME280;66536;53.150;18.172;2023-04-01T09:28:02;99680.52;;;8.75;76.26
77450;BME280;66536;53.150;18.172;2023-04-01T09:39:38;99697.72;;;8.73;75.70
77450;BME280;66536;53.150;18.172;2023-04-01T09:45:41;99695.73;;;8.70;76.43
77450;BME280;66536;53.150;18.172;2023-04-01T09:51:36;99701.90;;;8.62;76.30
77450;BME280;66536;53.150;18.172;2023-04-01T09:54:27;99715.34;;;8.50;76.45
77450;BME280;66536;53.150;18.172;2023-04-01T10:00:24;99718.11;;;8.40;76.98
77450;BME280;66536;53.150;18.172;2023-04-01T10:06:20;99727.55;;;8.42;77.26
77450;BME280;66536;53.150;18.172;2023-04-01T10:12:03;99727.73;;;8.65;76.25
77450;BME280;66536;53.150;18.172;2023-04-01T10:17:47;99731.77;;;8.85;75.59
77450;BME280;66536;53.150;18.172;2023-04-01T10:20:37;99734.94;;;8.91;75.20
77450;BME280;66536;53.150;18.172;2023-04-01T10:23:42;99731.75;;;8.89;74.94
77450;BME280;66536;53.150;18.172;2023-04-01T10:26:32;99740.33;;;8.80;75.53
77450;BME280;66536;53.150;18.172;2023-04-01T10:32:27;99749.27;;;9.00;74.84
77450;BME280;66536;53.150;18.172;2023-04-01T10:38:25;99740.86;;;9.14;73.63
77450;BME280;66536;53.150;18.172;2023-04-01T10:47:19;99747.73;;;9.45;73.53
77450;BME280;66536;53.150;18.172;2023-04-01T10:53:23;99750.39;;;9.15;74.01
77450;BME280;66536;53.150;18.172;2023-04-01T11:05:45;99768.58;;;9.06;73.85
77450;BME280;66536;53.150;18.172;2023-04-01T11:11:27;99769.30;;;9.12;74.07
77450;BME280;66536;53.150;18.172;2023-04-01T11:20:07;99785.56;;;9.00;73.46
77450;BME280;66536;53.150;18.172;2023-04-01T11:22:53;99793.67;;;9.15;73.35
77450;BME280;66536;53.150;18.172;2023-04-01T11:28:34;99799.54;;;9.29;72.57
77450;BME280;66536;53.150;18.172;2023-04-01T11:34:21;99807.95;;;9.27;72.92
77450;BME280;66536;53.150;18.172;2023-04-01T11:37:21;99812.41;;;9.28;72.20
77450;BME280;66536;53.150;18.172;2023-04-01T11:40:27;99813.75;;;9.36;71.80
77450;BME280;66536;53.150;18.172;2023-04-01T11:43:16;99815.63;;;9.50;71.31
77450;BME280;66536;53.150;18.172;2023-04-01T11:48:56;99818.97;;;9.61;70.34
77450;BME280;66536;53.150;18.172;2023-04-01T11:51:40;99821.17;;;9.57;70.02
77450;BME280;66536;53.150;18.172;2023-04-01T11:57:13;99828.61;;;9.65;69.95
77450;BME280;66536;53.150;18.172;2023-04-01T11:59:54;99830.81;;;9.62;69.80
77450;BME280;66536;53.150;18.172;2023-04-01T12:02:31;99834.41;;;9.70;70.00
77450;BME280;66536;53.150;18.172;2023-04-01T12:05:19;99837.29;;;9.69;69.43
77450;BME280;66536;53.150;18.172;2023-04-01T12:07:57;99838.97;;;9.72;69.89
77450;BME280;66536;53.150;18.172;2023-04-01T12:10:42;99835.66;;;9.66;69.71
77450;BME280;66536;53.150;18.172;2023-04-01T12:13:32;99840.23;;;9.59;70.39
77450;BME280;66536;53.150;18.172;2023-04-01T12:18:50;99847.73;;;9.59;69.85
77450;BME280;66536;53.150;18.172;2023-04-01T12:21:38;99846.88;;;9.50;70.02
77450;BME280;66536;53.150;18.172;2023-04-01T12:24:39;99853.84;;;9.48;69.72
77450;BME280;66536;53.150;18.172;2023-04-01T12:27:34;99858.35;;;9.42;69.26
77450;BME280;66536;53.150;18.172;2023-04-01T12:38:48;99863.58;;;9.18;69.54
77450;BME280;66536;53.150;18.172;2023-04-01T12:41:32;99866.86;;;9.21;70.05
77450;BME280;66536;53.150;18.172;2023-04-01T12:44:20;99866.41;;;9.27;69.51
77450;BME280;66536;53.150;18.172;2023-04-01T13:01:25;99887.52;;;9.84;67.24
77450;BME280;66536;53.150;18.172;2023-04-01T13:04:24;99893.14;;;9.97;67.17
77450;BME280;66536;53.150;18.172;2023-04-01T13:07:14;99894.27;;;9.88;66.99
77450;BME280;66536;53.150;18.172;2023-04-01T13:10:07;99903.38;;;9.90;66.79
77450;BME280;66536;53.150;18.172;2023-04-01T13:16:20;99913.66;;;9.80;67.42
77450;BME280;66536;53.150;18.172;2023-04-01T13:19:02;99916.32;;;9.72;67.22
77450;BME280;66536;53.150;18.172;2023-04-01T13:24:31;99921.81;;;9.25;68.21
77450;BME280;66536;53.150;18.172;2023-04-01T13:27:14;99926.58;;;9.07;69.06
77450;BME280;66536;53.150;18.172;2023-04-01T13:29:57;99928.64;;;8.99;69.11
77450;BME280;66536;53.150;18.172;2023-04-01T13:32:38;99932.00;;;8.93;69.77
77450;BME280;66536;53.150;18.172;2023-04-01T13:35:30;99931.88;;;8.85;69.84
77450;BME280;66536;53.150;18.172;2023-04-01T13:38:16;99938.23;;;8.83;69.83
77450;BME280;66536;53.150;18.172;2023-04-01T13:43:35;99940.27;;;8.88;69.09
77450;BME280;66536;53.150;18.172;2023-04-01T13:46:16;99942.84;;;8.85;69.22
77450;BME280;66536;53.150;18.172;2023-04-01T13:49:06;99941.68;;;8.76;69.13
77450;BME280;66536;53.150;18.172;2023-04-01T13:54:39;99955.31;;;8.44;69.52
77450;BME280;66536;53.150;18.172;2023-04-01T13:57:27;99959.76;;;8.39;69.78
77450;BME280;66536;53.150;18.172;2023-04-01T14:00:17;99962.38;;;8.38;69.86
77450;BME280;66536;53.150;18.172;2023-04-01T14:02:59;99965.52;;;8.33;70.14
77450;BME280;66536;53.150;18.172;2023-04-01T14:08:29;99975.33;;;8.18;70.89
77450;BME280;66536;53.150;18.172;2023-04-01T14:11:13;99977.04;;;8.11;70.89
77450;BME280;66536;53.150;18.172;2023-04-01T14:22:19;99998.41;;;7.93;71.70
77450;BME280;66536;53.150;18.172;2023-04-01T14:28:00;100009.83;;;7.86;71.45
77450;BME280;66536;53.150;18.172;2023-04-01T14:33:30;100002.84;;;7.70;71.43
77450;BME280;66536;53.150;18.172;2023-04-01T14:39:15;100013.88;;;7.59;71.71
77450;BME280;66536;53.150;18.172;2023-04-01T14:41:48;100022.90;;;7.55;71.57
77450;BME280;66536;53.150;18.172;2023-04-01T14:44:34;100016.02;;;7.49;71.74
77450;BME280;66536;53.150;18.172;2023-04-01T14:52:59;100030.49;;;7.34;71.99
77450;BME280;66536;53.150;18.172;2023-04-01T14:55:48;100030.08;;;7.28;72.29
77450;BME280;66536;53.150;18.172;2023-04-01T14:58:17;100035.27;;;7.26;72.45
77450;BME280;66536;53.150;18.172;2023-04-01T15:03:48;100052.80;;;7.22;72.23
77450;BME280;66536;53.150;18.172;2023-04-01T15:06:38;100058.95;;;7.19;72.21
77450;BME280;66536;53.150;18.172;2023-04-01T15:09:37;100053.05;;;7.11;72.60
77450;BME280;66536;53.150;18.172;2023-04-01T15:12:22;100059.51;;;7.06;73.13
77450;BME280;66536;53.150;18.172;2023-04-01T15:15:04;100066.40;;;7.02;73.01
77450;BME280;66536;53.150;18.172;2023-04-01T15:17:54;100071.70;;;7.00;72.89
77450;BME280;66536;53.150;18.172;2023-04-01T15:23:49;100089.70;;;6.88;72.95
77450;BME280;66536;53.150;18.172;2023-04-01T15:29:28;100093.66;;;6.67;72.90
77450;BME280;66536;53.150;18.172;2023-04-01T15:32:21;100095.45;;;6.55;73.41
77450;BME280;66536;53.150;18.172;2023-04-01T15:35:03;100105.98;;;6.47;73.64
77450;BME280;66536;53.150;18.172;2023-04-01T15:37:48;100104.34;;;6.38;73.68
77450;BME280;66536;53.150;18.172;2023-04-01T15:49:33;100119.92;;;6.10;74.20
77450;BME280;66536;53.150;18.172;2023-04-01T15:52:07;100121.55;;;6.02;74.65
77450;BME280;66536;53.150;18.172;2023-04-01T15:55:00;100117.52;;;6.00;74.94
77450;BME280;66536;53.150;18.172;2023-04-01T15:57:40;100128.71;;;5.97;75.01
77450;BME280;66536;53.150;18.172;2023-04-01T16:00:22;100140.48;;;5.95;74.78
77450;BME280;66536;53.150;18.172;2023-04-01T16:06:01;100140.41;;;5.90;75.11
77450;BME280;66536;53.150;18.172;2023-04-01T16:08:52;100149.17;;;5.84;75.16
77450;BME280;66536;53.150;18.172;2023-04-01T16:17:31;100164.74;;;5.66;75.78
77450;BME280;66536;53.150;18.172;2023-04-01T16:20:22;100171.63;;;5.56;75.86
77450;BME280;66536;53.150;18.172;2023-04-01T16:23:01;100176.08;;;5.49;76.24
77450;BME280;66536;53.150;18.172;2023-04-01T16:25:39;100176.48;;;5.43;76.59
77450;BME280;66536;53.150;18.172;2023-04-01T16:28:31;100181.81;;;5.36;76.76
77450;BME280;66536;53.150;18.172;2023-04-01T16:31:06;100189.31;;;5.29;76.96
77450;BME280;66536;53.150;18.172;2023-04-01T16:33:59;100198.70;;;5.28;77.07
77450;BME280;66536;53.150;18.172;2023-04-01T16:39:28;100203.91;;;5.23;77.03
77450;BME280;66536;53.150;18.172;2023-04-01T16:42:12;100204.02;;;5.18;77.01
77450;BME280;66536;53.150;18.172;2023-04-01T16:44:55;100205.56;;;5.15;76.90
77450;BME280;66536;53.150;18.172;2023-04-01T16:47:27;100213.58;;;5.11;77.10
77450;BME280;66536;53.150;18.172;2023-04-01T16:52:48;100226.96;;;4.98;77.11
77450;BME280;66536;53.150;18.172;2023-04-01T16:55:41;100232.41;;;4.95;77.10
77450;BME280;66536;53.150;18.172;2023-04-01T16:58:25;100234.77;;;4.92;76.81
77450;BME280;66536;53.150;18.172;2023-04-01T17:01:00;100231.77;;;4.86;76.91
77450;BME280;66536;53.150;18.172;2023-04-01T17:03:51;100242.20;;;4.80;77.06
77450;BME280;66536;53.150;18.172;2023-04-01T17:06:28;100241.70;;;4.79;77.06
77450;BME280;66536;53.150;18.172;2023-04-01T17:09:28;100244.80;;;4.77;77.13
77450;BME280;66536;53.150;18.172;2023-04-01T17:14:59;100256.46;;;4.70;77.19
77450;BME280;66536;53.150;18.172;2023-04-01T17:17:47;100255.00;;;4.67;77.46
77450;BME280;66536;53.150;18.172;2023-04-01T17:20:40;100258.89;;;4.63;77.55
77450;BME280;66536;53.150;18.172;2023-04-01T17:29:18;100285.63;;;4.51;77.62
77450;BME280;66536;53.150;18.172;2023-04-01T17:32:09;100291.07;;;4.51;77.91
77450;BME280;66536;53.150;18.172;2023-04-01T17:34:46;100301.44;;;4.52;77.74
77450;BME280;66536;53.150;18.172;2023-04-01T17:45:53;100323.77;;;4.39;78.09
77450;BME280;66536;53.150;18.172;2023-04-01T17:48:36;100306.81;;;4.36;78.34
77450;BME280;66536;53.150;18.172;2023-04-01T17:51:18;100326.58;;;4.32;78.26
77450;BME280;66536;53.150;18.172;2023-04-01T17:53:58;100328.69;;;4.29;78.44
77450;BME280;66536;53.150;18.172;2023-04-01T17:59:38;100331.52;;;4.25;78.73
77450;BME280;66536;53.150;18.172;2023-04-01T18:02:20;100336.35;;;4.22;78.73
77450;BME280;66536;53.150;18.172;2023-04-01T18:05:05;100337.13;;;4.21;79.11
77450;BME280;66536;53.150;18.172;2023-04-01T18:16:30;100356.82;;;4.12;79.14
77450;BME280;66536;53.150;18.172;2023-04-01T18:19:18;100356.74;;;4.12;79.04
77450;BME280;66536;53.150;18.172;2023-04-01T18:21:59;100364.85;;;4.11;78.85
77450;BME280;66536;53.150;18.172;2023-04-01T18:27:23;100375.55;;;4.08;78.96